Time;durP1;ratioP1;P1;durP2;ratioP2;P2;SDS_P1;SDS_P2;PMS_P1;PMS_P2;Temp;Humidity;BMP_temperature;BMP_pressure;BME280_temperature;BME280_humidity;BME280_pressure;Samples;Min_cycle;Max_cycle;Signal;HPM_P1;HPM_P2
2021/01/25 00:00:07;;;;;;;34.60;19.27;;;;;;;;;;4978604;28;20582;-79
2021/01/25 00:02:33;;;;;;;30.20;18.80;;;;;;;;;;4995010;28;20232;-78
2021/01/25 00:04:59;;;;;;;29.33;17.77;;;;;;;;;;4994900;28;20294;-78
2021/01/25 00:07:25;;;;;;;31.37;17.13;;;;;;;;;;4994292;28;20673;-78
2021/01/25 00:09:51;;;;;;;29.20;18.53;;;;;;;;;;4994912;28;20524;-78
2021/01/25 00:12:17;;;;;;;29.60;18.10;;;;;;;;;;5012250;28;20548;-78
2021/01/25 00:14:43;;;;;;;32.67;18.67;;;;;;;;;;4995075;28;20196;-78
2021/01/25 00:17:09;;;;;;;31.67;17.63;;;;;;;;;;4994445;28;20187;-78
2021/01/25 00:19:35;;;;;;;27.57;17.50;;;;;;;;;;5011968;28;20190;-77
2021/01/25 00:22:01;;;;;;;27.50;17.20;;;;;;;;;;5011988;28;20178;-78
2021/01/25 00:24:27;;;;;;;30.47;17.37;;;;;;;;;;4978111;28;20201;-78
2021/01/25 00:26:53;;;;;;;29.07;17.50;;;;;;;;;;4994113;28;20204;-77
2021/01/25 00:29:19;;;;;;;28.07;16.10;;;;;;;;;;4995187;28;20179;-78
2021/01/25 00:31:45;;;;;;;30.00;17.07;;;;;;;;;;5015690;28;20637;-78
2021/01/25 00:34:11;;;;;;;25.67;16.10;;;;;;;;;;4997963;28;20179;-78
2021/01/25 00:36:36;;;;;;;28.70;16.37;;;;;;;;;;5015401;28;20189;-78
2021/01/25 00:39:03;;;;;;;27.43;16.43;;;;;;;;;;4998684;28;20574;-78
2021/01/25 00:41:28;;;;;;;24.13;15.73;;;;;;;;;;4982085;28;20225;-78
2021/01/25 00:43:54;;;;;;;25.03;14.57;;;;;;;;;;5015291;28;20218;-78
2021/01/25 00:46:20;;;;;;;24.77;15.77;;;;;;;;;;5014473;28;20195;-78
2021/01/25 00:48:46;;;;;;;25.33;14.30;;;;;;;;;;4997788;28;20193;-78
2021/01/25 00:51:12;;;;;;;22.53;14.83;;;;;;;;;;4981229;28;20182;-78
2021/01/25 00:53:38;;;;;;;24.40;14.93;;;;;;;;;;4997488;28;20195;-77
2021/01/25 00:56:04;;;;;;;22.33;14.10;;;;;;;;;;4996916;28;20308;-78
2021/01/25 00:58:30;;;;;;;22.43;14.50;;;;;;;;;;4997497;28;20183;-78
2021/01/25 01:00:56;;;;;;;25.40;14.40;;;;;;;;;;4997367;28;20175;-78
2021/01/25 01:03:22;;;;;;;26.13;15.20;;;;;;;;;;4997828;28;20601;-78
2021/01/25 01:05:48;;;;;;;25.47;15.10;;;;;;;;;;4981134;28;20235;-77
2021/01/25 01:08:15;;;;;;;23.47;14.73;;;;;;;;;;4996933;28;20202;-78
2021/01/25 01:10:41;;;;;;;25.97;15.10;;;;;;;;;;4981361;28;20240;-78
2021/01/25 01:13:07;;;;;;;22.70;14.17;;;;;;;;;;5014765;28;20183;-77
2021/01/25 01:15:33;;;;;;;22.50;14.67;;;;;;;;;;4997327;28;20907;-78
2021/01/25 01:17:59;;;;;;;21.40;14.43;;;;;;;;;;4996737;28;20184;-77
2021/01/25 01:20:25;;;;;;;23.03;14.80;;;;;;;;;;4980952;28;20187;-77
2021/01/25 01:22:51;;;;;;;23.97;14.30;;;;;;;;;;4997113;28;20646;-78
2021/01/25 01:25:17;;;;;;;21.80;14.27;;;;;;;;;;5015813;28;20222;-78
2021/01/25 01:27:43;;;;;;;24.87;14.53;;;;;;;;;;5013882;28;20289;-79
2021/01/25 01:30:09;;;;;;;21.67;14.20;;;;;;;;;;4997154;28;20182;-78
2021/01/25 01:32:35;;;;;;;21.70;13.97;;;;;;;;;;5014492;28;20264;-78
2021/01/25 01:35:01;;;;;;;21.40;13.50;;;;;;;;;;4997132;28;20273;-78
2021/01/25 01:37:27;;;;;;;22.97;14.50;;;;;;;;;;4996606;28;20190;-78
2021/01/25 01:39:53;;;;;;;24.43;14.80;;;;;;;;;;4997786;28;20714;-77
2021/01/25 01:42:19;;;;;;;25.20;14.73;;;;;;;;;;4997086;28;20211;-78
2021/01/25 01:44:45;;;;;;;23.63;14.33;;;;;;;;;;4997112;28;20565;-78
2021/01/25 01:47:12;;;;;;;24.00;14.37;;;;;;;;;;5014217;28;20264;-78
2021/01/25 01:49:38;;;;;;;21.67;14.53;;;;;;;;;;4980456;28;20555;-78
2021/01/25 01:52:04;;;;;;;25.20;14.67;;;;;;;;;;4980989;28;20179;-77
2021/01/25 01:54:31;;;;;;;23.40;15.13;;;;;;;;;;5014893;28;20599;-78
2021/01/25 01:56:56;;;;;;;22.57;14.13;;;;;;;;;;4996940;28;20276;-78
2021/01/25 01:59:22;;;;;;;25.30;15.00;;;;;;;;;;4980602;28;20282;-78
2021/01/25 02:01:48;;;;;;;21.87;14.20;;;;;;;;;;4996626;28;20182;-77
2021/01/25 02:04:14;;;;;;;25.70;15.10;;;;;;;;;;4996294;28;20187;-77
2021/01/25 02:06:40;;;;;;;23.03;14.20;;;;;;;;;;4980153;28;20240;-78
2021/01/25 02:09:06;;;;;;;23.33;14.97;;;;;;;;;;4996562;28;20175;-78
2021/01/25 02:11:33;;;;;;;25.33;14.50;;;;;;;;;;4995885;28;20613;-77
2021/01/25 02:14:00;;;;;;;24.07;15.00;;;;;;;;;;4996323;28;20214;-77
2021/01/25 02:16:26;;;;;;;22.13;13.33;;;;;;;;;;4979473;28;20203;-78
2021/01/25 02:18:52;;;;;;;20.97;13.90;;;;;;;;;;4996290;28;20191;-77
2021/01/25 02:21:18;;;;;;;25.47;13.80;;;;;;;;;;4979836;28;20186;-80
2021/01/25 02:23:47;;;;;;;28.87;15.33;;;;;;;;;;4996274;28;20185;-78
2021/01/25 02:26:18;;;;;;;22.93;13.53;;;;;;;;;;5012879;28;20677;-77
2021/01/25 02:28:44;;;;;;;21.20;12.83;;;;;;;;;;4996020;28;20685;-77
2021/01/25 02:31:10;;;;;;;22.90;13.50;;;;;;;;;;4995741;28;20195;-78
2021/01/25 02:33:42;;;;;;;22.87;13.37;;;;;;;;;;4996043;28;20642;-78
2021/01/25 02:36:08;;;;;;;23.67;14.07;;;;;;;;;;4978834;28;20210;-78
2021/01/25 02:38:34;;;;;;;23.37;13.47;;;;;;;;;;4995865;28;20184;-77
2021/01/25 02:41:00;;;;;;;22.53;13.67;;;;;;;;;;4995761;28;20181;-78
2021/01/25 02:43:26;;;;;;;22.70;13.23;;;;;;;;;;4995866;28;20701;-78
2021/01/25 02:45:52;;;;;;;21.00;12.73;;;;;;;;;;5013284;28;20197;-77
2021/01/25 02:48:18;;;;;;;21.97;13.23;;;;;;;;;;4995115;28;20194;-78
2021/01/25 02:50:51;;;;;;;22.23;13.90;;;;;;;;;;4995593;28;20627;-78
2021/01/25 02:53:17;;;;;;;20.87;12.93;;;;;;;;;;4994614;28;20178;-78
2021/01/25 02:55:43;;;;;;;23.10;13.03;;;;;;;;;;4995622;28;20627;-78
2021/01/25 02:58:09;;;;;;;21.93;13.13;;;;;;;;;;4995018;28;20183;-79
2021/01/25 03:00:35;;;;;;;21.27;13.17;;;;;;;;;;5012896;28;20188;-78
2021/01/25 03:03:01;;;;;;;19.40;11.87;;;;;;;;;;4995567;28;20175;-79
2021/01/25 03:05:28;;;;;;;21.73;12.47;;;;;;;;;;4995320;28;20675;-78
2021/01/25 03:07:54;;;;;;;20.83;13.03;;;;;;;;;;4978473;28;20202;-78
2021/01/25 03:10:20;;;;;;;18.57;12.73;;;;;;;;;;4979327;28;20181;-78
2021/01/25 03:12:46;;;;;;;19.50;13.30;;;;;;;;;;4994873;28;20198;-78
2021/01/25 03:15:12;;;;;;;24.60;13.50;;;;;;;;;;4979084;28;20202;-78
2021/01/25 03:17:38;;;;;;;20.20;13.30;;;;;;;;;;4994714;28;20187;-77
2021/01/25 03:20:04;;;;;;;18.90;12.63;;;;;;;;;;5009744;28;20239;-78
2021/01/25 03:22:30;;;;;;;20.23;12.60;;;;;;;;;;5012892;28;20182;-79
2021/01/25 03:24:56;;;;;;;20.70;13.10;;;;;;;;;;5012430;28;20218;-77
2021/01/25 03:27:22;;;;;;;21.07;13.60;;;;;;;;;;4994605;28;20681;-78
2021/01/25 03:29:48;;;;;;;20.27;13.03;;;;;;;;;;5012353;28;20175;-78
2021/01/25 03:32:14;;;;;;;21.33;13.17;;;;;;;;;;5012860;28;20179;-77
2021/01/25 03:34:40;;;;;;;25.10;14.53;;;;;;;;;;5012513;28;20629;-78
2021/01/25 03:37:06;;;;;;;24.43;14.33;;;;;;;;;;4978470;28;20205;-78
2021/01/25 03:39:32;;;;;;;25.00;15.10;;;;;;;;;;4978782;28;20188;-78
2021/01/25 03:41:58;;;;;;;22.67;13.97;;;;;;;;;;4995084;28;20272;-78
2021/01/25 03:44:24;;;;;;;22.90;14.33;;;;;;;;;;4995024;28;20193;-78
2021/01/25 03:46:50;;;;;;;23.30;14.10;;;;;;;;;;4978196;28;20739;-78
2021/01/25 03:49:16;;;;;;;23.10;15.17;;;;;;;;;;4995108;28;20187;-77
2021/01/25 03:51:42;;;;;;;23.00;15.30;;;;;;;;;;5012329;28;20260;-79
2021/01/25 03:54:11;;;;;;;26.57;16.07;;;;;;;;;;4995161;28;20178;-77
2021/01/25 03:56:37;;;;;;;24.50;16.53;;;;;;;;;;4994436;28;20670;-78
2021/01/25 03:59:03;;;;;;;24.23;16.60;;;;;;;;;;4994841;28;20182;-78
2021/01/25 04:01:29;;;;;;;28.23;16.53;;;;;;;;;;4978632;28;20185;-78
2021/01/25 04:03:55;;;;;;;23.47;15.93;;;;;;;;;;5012537;28;20179;-78
2021/01/25 04:06:21;;;;;;;26.07;15.83;;;;;;;;;;4981467;28;20221;-78
2021/01/25 04:08:48;;;;;;;25.50;16.03;;;;;;;;;;4998739;28;20203;-78
2021/01/25 04:11:14;;;;;;;26.40;16.70;;;;;;;;;;4982346;28;20186;-77
2021/01/25 04:13:40;;;;;;;26.87;17.43;;;;;;;;;;4999041;28;20175;-78
2021/01/25 04:16:06;;;;;;;28.53;18.13;;;;;;;;;;4997833;28;20574;-77
2021/01/25 04:18:33;;;;;;;24.77;16.53;;;;;;;;;;5015740;28;20190;-78
2021/01/25 04:20:59;;;;;;;23.60;16.13;;;;;;;;;;4998629;28;20186;-78
2021/01/25 04:23:25;;;;;;;26.30;16.60;;;;;;;;;;4998397;28;20186;-77
2021/01/25 04:25:51;;;;;;;28.63;16.97;;;;;;;;;;5031585;23;20229;-77
2021/01/25 04:28:17;;;;;;;27.00;16.40;;;;;;;;;;5033683;28;20242;-77
2021/01/25 04:30:43;;;;;;;27.70;17.63;;;;;;;;;;5035539;28;20266;-77
2021/01/25 04:33:09;;;;;;;26.37;16.87;;;;;;;;;;5034189;28;20262;-77
2021/01/25 04:35:39;;;;;;;24.97;15.87;;;;;;;;;;5034228;28;20199;-77
2021/01/25 04:38:05;;;;;;;28.40;17.37;;;;;;;;;;5035251;28;20193;-78
2021/01/25 04:40:31;;;;;;;27.27;16.37;;;;;;;;;;5034215;28;20178;-77
2021/01/25 04:42:57;;;;;;;31.03;18.03;;;;;;;;;;5034256;28;20640;-78
2021/01/25 04:45:23;;;;;;;28.83;17.77;;;;;;;;;;5035175;28;20569;-76
2021/01/25 04:47:49;;;;;;;25.87;17.50;;;;;;;;;;5033464;28;20206;-78
2021/01/25 04:50:18;;;;;;;29.00;17.27;;;;;;;;;;5034248;28;20258;-76
2021/01/25 04:52:47;;;;;;;29.50;17.57;;;;;;;;;;5034013;28;20535;-78
2021/01/25 04:55:16;;;;;;;28.27;16.13;;;;;;;;;;5033750;28;20221;-78
2021/01/25 04:57:43;;;;;;;25.43;16.97;;;;;;;;;;5033614;28;20189;-79
2021/01/25 05:00:09;;;;;;;25.50;15.63;;;;;;;;;;5034944;28;20707;-77
2021/01/25 05:02:36;;;;;;;26.57;16.33;;;;;;;;;;5033737;28;20555;-78
2021/01/25 05:05:03;;;;;;;28.77;16.77;;;;;;;;;;5017162;28;20189;-77
2021/01/25 05:07:28;;;;;;;25.50;16.07;;;;;;;;;;5016802;28;20203;-78
2021/01/25 05:09:54;;;;;;;29.10;17.73;;;;;;;;;;5034673;28;20182;-78
2021/01/25 05:12:20;;;;;;;28.10;16.87;;;;;;;;;;5033429;28;20179;-80
2021/01/25 05:14:46;;;;;;;27.13;16.80;;;;;;;;;;5016962;28;20181;-79
2021/01/25 05:17:13;;;;;;;29.17;17.10;;;;;;;;;;5032042;28;20186;-77
2021/01/25 05:19:39;;;;;;;24.97;17.10;;;;;;;;;;5033524;28;20264;-77
2021/01/25 05:22:09;;;;;;;23.77;16.10;;;;;;;;;;5033525;28;20190;-77
2021/01/25 05:24:43;;;;;;;24.17;16.57;;;;;;;;;;5016855;28;20812;-80
2021/01/25 05:27:09;;;;;;;28.47;17.10;;;;;;;;;;5032551;28;20686;-78
2021/01/25 05:29:35;;;;;;;26.83;16.93;;;;;;;;;;5033309;28;20254;-77
2021/01/25 05:32:01;;;;;;;26.57;16.97;;;;;;;;;;5034601;28;20646;-78
2021/01/25 05:34:27;;;;;;;27.87;17.17;;;;;;;;;;5033138;28;20266;-78
2021/01/25 05:36:53;;;;;;;26.27;16.63;;;;;;;;;;5032877;28;20204;-77
2021/01/25 05:39:19;;;;;;;29.27;17.03;;;;;;;;;;5032950;28;20718;-77
2021/01/25 05:41:57;;;;;;;31.03;18.40;;;;;;;;;;5032960;28;20177;-78
2021/01/25 05:44:23;;;;;;;27.60;17.63;;;;;;;;;;5016951;28;20542;-78
2021/01/25 05:46:50;;;;;;;25.40;15.80;;;;;;;;;;5036383;28;20208;-78
2021/01/25 05:49:25;;;;;;;27.23;16.73;;;;;;;;;;5038225;28;20221;-78
2021/01/25 05:51:55;;;;;;;24.53;16.20;;;;;;;;;;5038745;28;20188;-77
2021/01/25 05:54:28;;;;;;;25.47;15.93;;;;;;;;;;5026774;28;20202;-78
2021/01/25 05:56:58;;;;;;;25.33;16.63;;;;;;;;;;5010412;28;20232;-78
2021/01/25 05:59:24;;;;;;;27.90;17.20;;;;;;;;;;5003477;28;20646;-81
2021/01/25 06:01:51;;;;;;;29.93;18.23;;;;;;;;;;5019567;28;20255;-80
2021/01/25 06:04:18;;;;;;;26.23;17.03;;;;;;;;;;5001875;28;20229;-83
2021/01/25 06:06:52;;;;;;;29.80;17.57;;;;;;;;;;5018010;28;20278;-78
2021/01/25 06:09:24;;;;;;;27.13;16.80;;;;;;;;;;5002361;28;20442;-81
2021/01/25 06:12:10;;;;;;;25.50;17.43;;;;;;;;;;5001825;28;20191;-82
2021/01/25 06:14:56;;;;;;;24.53;16.77;;;;;;;;;;5017104;28;20604;-83
2021/01/25 06:17:24;;;;;;;27.80;17.43;;;;;;;;;;5015696;28;20225;-78
2021/01/25 06:19:49;;;;;;;26.07;17.33;;;;;;;;;;5012489;28;20195;-81
2021/01/25 06:22:15;;;;;;;28.53;18.33;;;;;;;;;;4980055;28;20206;-80
2021/01/25 06:24:41;;;;;;;29.73;17.57;;;;;;;;;;4982804;28;20184;-79
2021/01/25 06:27:08;;;;;;;27.97;17.80;;;;;;;;;;4983390;28;20224;-81
2021/01/25 06:29:35;;;;;;;28.93;17.80;;;;;;;;;;5000184;28;20193;-78
2021/01/25 06:32:01;;;;;;;28.83;18.37;;;;;;;;;;5023023;28;20195;-78
2021/01/25 06:34:28;;;;;;;29.97;19.07;;;;;;;;;;5010478;28;20237;-76
2021/01/25 06:36:54;;;;;;;30.37;17.73;;;;;;;;;;4999784;28;20207;-77
2021/01/25 06:39:29;;;;;;;26.87;16.80;;;;;;;;;;5015038;28;20182;-75
2021/01/25 06:41:59;;;;;;;30.37;19.33;;;;;;;;;;5013900;28;20679;-75
2021/01/25 06:44:26;;;;;;;27.60;17.83;;;;;;;;;;5018426;28;20198;-74
2021/01/25 06:46:55;;;;;;;28.90;18.53;;;;;;;;;;5016037;28;20202;-77
2021/01/25 06:49:21;;;;;;;27.77;17.43;;;;;;;;;;5017041;28;20274;-77
2021/01/25 06:51:47;;;;;;;27.30;18.27;;;;;;;;;;4997817;28;20214;-79
2021/01/25 06:54:13;;;;;;;28.97;17.57;;;;;;;;;;5019897;28;20179;-77
2021/01/25 06:56:43;;;;;;;29.90;17.73;;;;;;;;;;5015584;28;20290;-78
2021/01/25 06:59:09;;;;;;;27.40;17.97;;;;;;;;;;4986733;28;20237;-79
2021/01/25 07:01:35;;;;;;;25.57;16.53;;;;;;;;;;5018427;28;20179;-78
2021/01/25 07:04:01;;;;;;;27.63;17.30;;;;;;;;;;5022234;28;20804;-77
2021/01/25 07:06:36;;;;;;;28.73;18.67;;;;;;;;;;5031631;28;20269;-78
2021/01/25 07:09:03;;;;;;;32.27;19.00;;;;;;;;;;5029698;28;20190;-80
2021/01/25 07:11:29;;;;;;;33.00;19.53;;;;;;;;;;5031864;28;20257;-85
2021/01/25 07:13:55;;;;;;;29.73;19.20;;;;;;;;;;5009576;28;20615;-80
2021/01/25 07:16:24;;;;;;;29.97;19.53;;;;;;;;;;5015275;28;20206;-79
2021/01/25 07:18:50;;;;;;;30.20;18.73;;;;;;;;;;5015744;28;20190;-83
2021/01/25 07:21:16;;;;;;;30.17;18.97;;;;;;;;;;5000801;28;20186;-83
2021/01/25 07:23:42;;;;;;;30.03;18.47;;;;;;;;;;4998809;28;20193;-83
2021/01/25 07:26:08;;;;;;;27.60;17.80;;;;;;;;;;5015768;28;20626;-80
2021/01/25 07:28:34;;;;;;;31.33;18.63;;;;;;;;;;4998743;28;20212;-82
2021/01/25 07:31:00;;;;;;;32.10;18.67;;;;;;;;;;5014922;28;20273;-80
2021/01/25 07:33:26;;;;;;;30.13;19.30;;;;;;;;;;4999682;28;20233;-79
2021/01/25 07:35:55;;;;;;;33.10;19.93;;;;;;;;;;4997219;28;20209;-80
2021/01/25 07:38:22;;;;;;;32.40;20.00;;;;;;;;;;5019625;28;20187;-78
2021/01/25 07:40:48;;;;;;;31.77;20.73;;;;;;;;;;5023129;28;20178;-82
2021/01/25 07:43:14;;;;;;;35.23;20.80;;;;;;;;;;5009446;28;20655;-80
2021/01/25 07:45:40;;;;;;;33.47;20.70;;;;;;;;;;5005014;28;20699;-80
2021/01/25 07:48:08;;;;;;;38.77;21.23;;;;;;;;;;5003722;28;20270;-79
2021/01/25 07:50:34;;;;;;;30.93;15.73;;;;;;;;;;5005423;28;20205;-83
2021/01/25 07:53:01;;;;;;;33.60;17.63;;;;;;;;;;5007076;28;20178;-83
2021/01/25 07:55:27;;;;;;;31.03;16.83;;;;;;;;;;5005841;28;20237;-82
2021/01/25 07:57:55;;;;;;;34.67;17.70;;;;;;;;;;5006161;28;20269;-83
2021/01/25 08:00:21;;;;;;;30.20;16.60;;;;;;;;;;5003619;28;20193;-83
2021/01/25 08:03:06;;;;;;;31.37;17.40;;;;;;;;;;5027497;28;20182;-82
2021/01/25 08:05:32;;;;;;;32.53;17.10;;;;;;;;;;5023533;28;20211;-81
2021/01/25 08:07:58;;;;;;;34.13;18.43;;;;;;;;;;5016985;28;20679;-77
2021/01/25 08:10:24;;;;;;;31.97;18.07;;;;;;;;;;4997771;28;20262;-81
2021/01/25 08:12:50;;;;;;;34.00;18.20;;;;;;;;;;4997548;28;20585;-79
2021/01/25 08:15:29;;;;;;;31.63;17.87;;;;;;;;;;4996676;28;20196;-78
2021/01/25 08:17:57;;;;;;;32.37;17.67;;;;;;;;;;4996857;28;20532;-86
2021/01/25 08:20:23;;;;;;;36.80;20.17;;;;;;;;;;4997986;28;20718;-87
2021/01/25 08:22:51;;;;;;;38.33;21.80;;;;;;;;;;4997909;28;20197;-86
2021/01/25 08:25:21;;;;;;;43.27;22.90;;;;;;;;;;4997919;28;20222;-88
2021/01/25 08:27:54;;;;;;;36.17;21.47;;;;;;;;;;4997038;28;20697;-83
2021/01/25 08:30:22;;;;;;;38.23;20.80;;;;;;;;;;4996085;28;20180;-79
2021/01/25 08:32:51;;;;;;;33.83;20.37;;;;;;;;;;4995870;28;20210;-82
2021/01/25 08:35:27;;;;;;;37.63;20.60;;;;;;;;;;4996974;28;20207;-79
2021/01/25 08:37:53;;;;;;;35.63;20.63;;;;;;;;;;4996395;28;20195;-81
2021/01/25 08:40:22;;;;;;;37.17;20.27;;;;;;;;;;4996919;28;20192;-76
2021/01/25 08:42:48;;;;;;;33.50;20.17;;;;;;;;;;4996186;28;20906;-79
2021/01/25 08:45:25;;;;;;;32.07;19.33;;;;;;;;;;4995442;28;20200;-79
2021/01/25 08:47:51;;;;;;;33.97;19.80;;;;;;;;;;4994766;28;20619;-79
2021/01/25 08:50:18;;;;;;;30.93;18.60;;;;;;;;;;4999285;28;20183;-79
2021/01/25 08:52:44;;;;;;;31.30;19.43;;;;;;;;;;5034777;28;20186;-83
2021/01/25 08:55:22;;;;;;;28.80;17.77;;;;;;;;;;5020125;28;20195;-79
2021/01/25 08:57:48;;;;;;;26.10;16.87;;;;;;;;;;5035189;28;20174;-79
2021/01/25 09:00:16;;;;;;;29.27;18.10;;;;;;;;;;5034746;28;20178;-81
2021/01/25 09:02:42;;;;;;;30.83;17.07;;;;;;;;;;5006080;28;20183;-81
2021/01/25 09:05:08;;;;;;;29.33;17.63;;;;;;;;;;5000317;28;20572;-83
2021/01/25 09:07:34;;;;;;;29.43;17.57;;;;;;;;;;5018235;28;20668;-82
2021/01/25 09:10:00;;;;;;;31.43;18.40;;;;;;;;;;5017509;28;20178;-84
2021/01/25 09:12:26;;;;;;;31.77;18.80;;;;;;;;;;5019804;28;20197;-84
2021/01/25 09:14:52;;;;;;;28.80;17.73;;;;;;;;;;5003364;28;20183;-84
2021/01/25 09:17:18;;;;;;;24.37;15.93;;;;;;;;;;5001554;28;20179;-84
2021/01/25 09:19:44;;;;;;;29.43;17.60;;;;;;;;;;5002509;28;20217;-85
2021/01/25 09:22:10;;;;;;;26.57;16.53;;;;;;;;;;5019657;28;20202;-84
2021/01/25 09:24:38;;;;;;;31.20;17.07;;;;;;;;;;5017817;28;20191;-85
2021/01/25 09:27:04;;;;;;;28.33;17.87;;;;;;;;;;5005427;28;20213;-84
2021/01/25 09:29:30;;;;;;;27.93;17.40;;;;;;;;;;5013395;28;20195;-83
2021/01/25 09:31:56;;;;;;;30.47;18.03;;;;;;;;;;4999061;28;20186;-84
2021/01/25 09:34:24;;;;;;;30.23;17.93;;;;;;;;;;5022549;28;20221;-86
2021/01/25 09:36:50;;;;;;;29.03;17.60;;;;;;;;;;5012120;28;20294;-84
2021/01/25 09:39:16;;;;;;;32.53;19.17;;;;;;;;;;5000024;28;20234;-86
2021/01/25 09:41:43;;;;;;;36.87;19.47;;;;;;;;;;4997102;28;20630;-83
2021/01/25 09:44:09;;;;;;;38.87;20.53;;;;;;;;;;5014969;28;20179;-83
2021/01/25 09:46:35;;;;;;;33.50;19.80;;;;;;;;;;5017690;28;20206;-81
2021/01/25 09:49:01;;;;;;;33.97;18.87;;;;;;;;;;5031725;28;20242;-83
2021/01/25 09:51:27;;;;;;;34.17;20.53;;;;;;;;;;5008454;28;20209;-83
2021/01/25 09:53:53;;;;;;;34.97;16.67;;;;;;;;;;5027125;28;20178;-83
2021/01/25 09:56:19;;;;;;;39.60;23.50;;;;;;;;;;5012902;28;20202;-81
2021/01/25 09:58:45;;;;;;;34.77;24.23;;;;;;;;;;5034725;28;20182;-82
2021/01/25 10:01:11;;;;;;;37.40;24.43;;;;;;;;;;5016695;28;20593;-84
2021/01/25 10:03:37;;;;;;;38.23;24.70;;;;;;;;;;5004694;28;20182;-84
2021/01/25 10:06:03;;;;;;;12.70;5.93;;;;;;;;;;5025062;28;20694;-89
2021/01/25 10:08:29;;;;;;;14.43;7.37;;;;;;;;;;5020879;28;20211;-84
2021/01/25 10:10:55;;;;;;;10.90;5.37;;;;;;;;;;5024886;28;20179;-84
2021/01/25 10:13:21;;;;;;;14.00;5.07;;;;;;;;;;4999400;28;20176;-86
2021/01/25 10:15:47;;;;;;;14.17;6.03;;;;;;;;;;4998143;28;20234;-84
2021/01/25 10:18:13;;;;;;;15.37;6.93;;;;;;;;;;4999077;28;20628;-85
2021/01/25 10:20:39;;;;;;;12.03;6.37;;;;;;;;;;5015870;28;20234;-84
2021/01/25 10:23:05;;;;;;;12.13;6.33;;;;;;;;;;4999843;28;20218;-85
2021/01/25 10:25:31;;;;;;;14.53;6.80;;;;;;;;;;5015098;28;20222;-86
2021/01/25 10:27:57;;;;;;;19.90;11.23;;;;;;;;;;5008559;28;20207;-84
2021/01/25 10:30:23;;;;;;;39.57;23.07;;;;;;;;;;4998490;28;20211;-84
2021/01/25 10:32:49;;;;;;;30.43;20.00;;;;;;;;;;4997268;28;20250;-85
2021/01/25 10:35:15;;;;;;;33.93;21.13;;;;;;;;;;4996944;28;20216;-86
2021/01/25 10:37:42;;;;;;;29.90;20.50;;;;;;;;;;5012630;28;20189;-85
2021/01/25 10:40:08;;;;;;;32.83;20.03;;;;;;;;;;4996815;28;20307;-85
2021/01/25 10:42:35;;;;;;;30.77;20.43;;;;;;;;;;4998232;28;20647;-84
2021/01/25 10:45:00;;;;;;;29.13;18.37;;;;;;;;;;4998390;28;20565;-84
2021/01/25 10:47:26;;;;;;;31.17;19.77;;;;;;;;;;4996634;28;20206;-83
2021/01/25 10:49:52;;;;;;;28.60;19.67;;;;;;;;;;4999072;28;20602;-84
2021/01/25 10:52:18;;;;;;;29.80;16.67;;;;;;;;;;4996949;28;20183;-83
2021/01/25 10:54:44;;;;;;;20.90;14.17;;;;;;;;;;4998250;28;20187;-83
2021/01/25 10:57:10;;;;;;;23.83;14.33;;;;;;;;;;4996805;28;20215;-82
2021/01/25 10:59:36;;;;;;;24.67;15.83;;;;;;;;;;5015119;28;20240;-82
2021/01/25 11:02:03;;;;;;;25.83;16.83;;;;;;;;;;4998325;28;20183;-83
2021/01/25 11:04:29;;;;;;;21.60;14.83;;;;;;;;;;4997583;28;20206;-81
2021/01/25 11:06:55;;;;;;;25.50;14.83;;;;;;;;;;4996914;28;20203;-84
2021/01/25 11:09:21;;;;;;;22.00;15.37;;;;;;;;;;4996624;28;20630;-85
2021/01/25 11:11:47;;;;;;;20.60;15.47;;;;;;;;;;4997806;28;20553;-84
2021/01/25 11:14:13;;;;;;;23.53;16.03;;;;;;;;;;5018895;28;20172;-82
2021/01/25 11:16:39;;;;;;;26.03;17.27;;;;;;;;;;5002188;28;20614;-81
2021/01/25 11:19:05;;;;;;;23.80;15.83;;;;;;;;;;4979681;28;20188;-82
2021/01/25 11:21:31;;;;;;;23.03;16.77;;;;;;;;;;4995007;28;20180;-83
2021/01/25 11:23:57;;;;;;;22.37;15.27;;;;;;;;;;4977807;28;20220;-82
2021/01/25 11:26:25;;;;;;;24.43;16.83;;;;;;;;;;5000868;28;20238;-84
2021/01/25 11:28:51;;;;;;;25.43;16.53;;;;;;;;;;4986676;28;20304;-83
2021/01/25 11:31:17;;;;;;;22.73;15.80;;;;;;;;;;4982574;28;20234;-83
2021/01/25 11:33:43;;;;;;;23.90;15.73;;;;;;;;;;4992522;28;20180;-80
2021/01/25 11:36:09;;;;;;;23.53;15.87;;;;;;;;;;4996182;28;20207;-84
2021/01/25 11:38:35;;;;;;;24.10;16.60;;;;;;;;;;5008195;28;20183;-82
2021/01/25 11:41:02;;;;;;;23.73;16.17;;;;;;;;;;4980406;28;20176;-83
2021/01/25 11:43:28;;;;;;;23.20;15.70;;;;;;;;;;4998134;28;20550;-82
2021/01/25 11:45:55;;;;;;;22.50;15.67;;;;;;;;;;4999122;28;20249;-83
2021/01/25 11:48:21;;;;;;;23.47;16.00;;;;;;;;;;4998111;28;20229;-80
2021/01/25 11:50:47;;;;;;;23.67;15.93;;;;;;;;;;5013611;28;20600;-86
2021/01/25 11:53:13;;;;;;;26.13;16.30;;;;;;;;;;5011338;28;20179;-89
2021/01/25 11:55:42;;;;;;;26.53;16.67;;;;;;;;;;4975616;28;20202;-81
2021/01/25 11:58:08;;;;;;;22.17;15.17;;;;;;;;;;4998124;28;20191;-80
2021/01/25 12:00:34;;;;;;;24.33;16.03;;;;;;;;;;5008854;28;20549;-79
2021/01/25 12:03:00;;;;;;;23.10;15.87;;;;;;;;;;5033309;28;20181;-80
2021/01/25 12:05:26;;;;;;;22.67;15.43;;;;;;;;;;5017810;28;20215;-81
2021/01/25 12:07:52;;;;;;;24.10;15.33;;;;;;;;;;4992529;28;20217;-82
2021/01/25 12:10:18;;;;;;;23.40;15.87;;;;;;;;;;4994454;28;20181;-82
2021/01/25 12:12:44;;;;;;;23.47;15.17;;;;;;;;;;4986168;28;20175;-80
2021/01/25 12:15:10;;;;;;;22.03;15.37;;;;;;;;;;5010202;28;20663;-82
2021/01/25 12:17:36;;;;;;;22.00;14.50;;;;;;;;;;4998744;28;20190;-83
2021/01/25 12:20:02;;;;;;;22.17;14.67;;;;;;;;;;5002565;28;20713;-85
2021/01/25 12:22:28;;;;;;;20.87;14.33;;;;;;;;;;4998065;28;20655;-85
2021/01/25 12:24:54;;;;;;;19.20;14.17;;;;;;;;;;4998704;28;20187;-83
2021/01/25 12:27:20;;;;;;;19.03;12.53;;;;;;;;;;5005007;28;20210;-84
2021/01/25 12:29:47;;;;;;;19.23;12.60;;;;;;;;;;5007188;28;20565;-86
2021/01/25 12:32:13;;;;;;;16.60;12.53;;;;;;;;;;5018784;28;20243;-83
2021/01/25 12:34:39;;;;;;;19.73;12.17;;;;;;;;;;5016052;28;20187;-81
2021/01/25 12:37:05;;;;;;;17.33;11.20;;;;;;;;;;4998386;28;20199;-87
2021/01/25 12:39:31;;;;;;;17.87;12.03;;;;;;;;;;5002921;28;20527;-86
2021/01/25 12:41:57;;;;;;;17.90;12.60;;;;;;;;;;5008301;28;20191;-88
2021/01/25 12:44:23;;;;;;;17.37;12.03;;;;;;;;;;5001030;28;20262;-83
2021/01/25 12:46:50;;;;;;;17.47;11.73;;;;;;;;;;5013566;28;20708;-88
2021/01/25 12:49:16;;;;;;;18.10;12.83;;;;;;;;;;5014720;28;20183;-89
2021/01/25 12:51:42;;;;;;;14.00;10.40;;;;;;;;;;4998060;28;20180;-88
2021/01/25 12:54:08;;;;;;;16.03;10.33;;;;;;;;;;4995691;28;20826;-78
2021/01/25 12:56:34;;;;;;;20.43;13.20;;;;;;;;;;5012270;28;20306;-77
2021/01/25 13:01:45;;;;;;;20.37;13.30;;;;;;;;;;5274232;23;20253;-77
2021/01/25 13:04:11;;;;;;;16.67;12.63;;;;;;;;;;5031302;28;20217;-78
2021/01/25 13:06:40;;;;;;;15.97;11.77;;;;;;;;;;5034880;28;20214;-85
2021/01/25 13:09:06;;;;;;;19.80;12.70;;;;;;;;;;5018857;28;20210;-85
2021/01/25 13:11:32;;;;;;;20.80;13.77;;;;;;;;;;5018789;28;20761;-83
2021/01/25 13:13:58;;;;;;;23.03;13.50;;;;;;;;;;5036480;28;20210;-87
2021/01/25 13:16:24;;;;;;;19.90;13.67;;;;;;;;;;5018479;28;20175;-77
2021/01/25 13:18:50;;;;;;;18.93;12.93;;;;;;;;;;5034393;28;20602;-78
2021/01/25 13:21:16;;;;;;;19.23;12.53;;;;;;;;;;5033914;28;20278;-78
2021/01/25 13:23:42;;;;;;;18.53;12.80;;;;;;;;;;5035638;28;20181;-84
2021/01/25 13:26:08;;;;;;;18.87;12.00;;;;;;;;;;5018298;28;20273;-84
2021/01/25 13:28:34;;;;;;;16.47;11.90;;;;;;;;;;5017892;28;20216;-84
2021/01/25 13:31:00;;;;;;;18.80;11.90;;;;;;;;;;5018169;28;20201;-84
2021/01/25 13:33:26;;;;;;;15.23;10.97;;;;;;;;;;5018012;28;20175;-87
2021/01/25 13:35:52;;;;;;;17.63;11.93;;;;;;;;;;5034591;28;20317;-81
2021/01/25 13:38:18;;;;;;;17.47;11.63;;;;;;;;;;5035887;28;20190;-85
2021/01/25 13:40:45;;;;;;;17.07;10.63;;;;;;;;;;5021608;28;20209;-82
2021/01/25 13:43:11;;;;;;;15.57;10.80;;;;;;;;;;5032798;28;20229;-84
2021/01/25 13:45:37;;;;;;;18.90;10.97;;;;;;;;;;5019039;28;20194;-83
2021/01/25 13:48:05;;;;;;;17.27;11.13;;;;;;;;;;5019537;28;20265;-83
2021/01/25 13:50:31;;;;;;;15.27;9.93;;;;;;;;;;5019354;28;20214;-82
2021/01/25 13:52:57;;;;;;;15.53;9.53;;;;;;;;;;5018079;28;20236;-83
2021/01/25 13:55:23;;;;;;;14.13;9.60;;;;;;;;;;5014786;28;20187;-83
2021/01/25 13:57:49;;;;;;;14.57;9.20;;;;;;;;;;5014871;28;20188;-83
2021/01/25 14:00:15;;;;;;;15.17;8.87;;;;;;;;;;5014501;28;20225;-82
2021/01/25 14:02:41;;;;;;;15.47;10.03;;;;;;;;;;5014751;28;20179;-83
2021/01/25 14:05:08;;;;;;;12.73;9.67;;;;;;;;;;5031089;28;20195;-83
2021/01/25 14:07:34;;;;;;;14.37;9.60;;;;;;;;;;5017596;28;20348;-82
2021/01/25 14:10:01;;;;;;;12.90;9.17;;;;;;;;;;5018129;28;20214;-85
2021/01/25 14:12:27;;;;;;;11.50;8.43;;;;;;;;;;5018312;28;20239;-82
2021/01/25 14:14:53;;;;;;;15.70;8.37;;;;;;;;;;5018192;28;20181;-82
2021/01/25 14:17:19;;;;;;;11.57;7.97;;;;;;;;;;5035673;28;20194;-81